createdAt,value
2019-05-02T00:00:36.374Z,34.63
2019-05-02T00:03:06.078Z,35.27
2019-05-02T00:05:35.888Z,39.08
2019-05-02T00:08:05.494Z,32.45
2019-05-02T00:10:35.921Z,35.83
2019-05-02T00:13:05.350Z,38.80
2019-05-02T00:15:38.237Z,37.63
2019-05-02T00:18:06.481Z,35.63
2019-05-02T00:20:35.897Z,36.80
2019-05-02T00:23:05.112Z,36.60
2019-05-02T00:25:34.898Z,37.55
2019-05-02T00:28:07.681Z,39.98
2019-05-02T00:30:36.126Z,38.85
2019-05-02T00:33:05.974Z,41.37
2019-05-02T00:35:35.321Z,37.70
2019-05-02T00:38:04.981Z,38.25
2019-05-02T00:40:34.689Z,37.38
2019-05-02T00:43:04.409Z,38.67
2019-05-02T00:45:33.761Z,35.65
2019-05-02T00:48:05.792Z,35.58
2019-05-02T00:50:40.744Z,38.15
2019-05-02T00:53:12.211Z,37.17
2019-05-02T00:55:42.374Z,36.98
2019-05-02T00:58:12.191Z,40.00
2019-05-02T01:00:59.648Z,35.50
2019-05-02T01:03:32.008Z,38.28
2019-05-02T01:06:02.001Z,39.23
2019-05-02T01:08:35.686Z,39.25
2019-05-02T01:11:03.158Z,41.08
2019-05-02T01:13:32.874Z,37.98
2019-05-02T01:16:02.581Z,41.50
2019-05-02T01:18:32.288Z,40.65
2019-05-02T01:21:02.713Z,41.05
2019-05-02T01:23:34.068Z,40.75
2019-05-02T01:26:03.349Z,39.60
2019-05-02T01:28:49.167Z,40.23
2019-05-02T01:31:22.340Z,41.23
2019-05-02T01:33:56.363Z,38.05
2019-05-02T01:39:13.845Z,42.88
2019-05-02T01:41:43.354Z,40.38
2019-05-02T01:44:12.673Z,41.68
2019-05-02T01:46:42.425Z,40.08
2019-05-02T01:49:12.124Z,41.63
2019-05-02T01:51:42.046Z,37.13
2019-05-02T01:54:12.873Z,38.15
2019-05-02T01:56:42.689Z,40.92
2019-05-02T01:59:12.300Z,37.58
2019-05-02T02:01:41.861Z,40.73
2019-05-02T02:04:11.414Z,40.23
2019-05-02T02:06:43.410Z,37.17
2019-05-02T02:09:12.680Z,37.48
2019-05-02T02:11:42.386Z,41.98
2019-05-02T02:14:12.866Z,36.40
2019-05-02T02:16:43.541Z,36.50
2019-05-02T02:19:26.878Z,35.95
2019-05-02T02:22:02.687Z,38.73
2019-05-02T02:24:33.515Z,35.45
2019-05-02T02:27:03.377Z,37.85
2019-05-02T02:29:32.792Z,37.85
2019-05-02T02:32:02.499Z,40.35
2019-05-02T02:34:32.585Z,38.78
2019-05-02T02:37:05.327Z,39.75
2019-05-02T02:39:33.829Z,34.50
2019-05-02T02:42:03.581Z,35.08
2019-05-02T02:44:40.094Z,38.80
2019-05-02T02:47:12.035Z,38.30
2019-05-02T02:49:39.880Z,35.78
2019-05-02T02:52:09.602Z,34.83
2019-05-02T02:54:43.428Z,35.17
2019-05-02T02:57:20.546Z,39.00
2019-05-02T02:59:41.590Z,37.73
2019-05-02T03:02:12.193Z,34.23
2019-05-02T03:04:44.241Z,37.65
2019-05-02T03:07:24.040Z,35.92
2019-05-02T03:09:44.736Z,34.85
2019-05-02T03:12:21.918Z,34.30
2019-05-02T03:14:55.733Z,35.92
2019-05-02T03:17:25.970Z,34.53
2019-05-02T03:20:01.587Z,38.08
2019-05-02T03:22:27.415Z,31.90
2019-05-02T03:24:57.021Z,34.38
2019-05-02T03:27:29.691Z,37.58
2019-05-02T03:29:57.781Z,39.03
2019-05-02T03:32:34.264Z,35.33
2019-05-02T03:34:58.947Z,38.05
2019-05-02T03:37:28.663Z,37.23
2019-05-02T03:40:00.701Z,35.20
2019-05-02T03:42:29.600Z,34.03
2019-05-02T03:45:04.309Z,32.08
2019-05-02T03:47:30.348Z,32.90
2019-05-02T03:50:01.087Z,31.37
2019-05-02T03:52:36.662Z,38.23
2019-05-02T03:55:02.145Z,33.23
2019-05-02T03:57:35.684Z,35.45
2019-05-02T04:00:04.128Z,36.95
2019-05-02T04:02:33.730Z,32.48
2019-05-02T04:05:03.615Z,34.35
2019-05-02T04:07:39.744Z,30.82
2019-05-02T04:10:07.423Z,34.18
2019-05-02T04:12:36.824Z,35.23
2019-05-02T04:15:09.551Z,34.70
2019-05-02T04:17:37.543Z,33.67
2019-05-02T04:20:10.209Z,31.50
2019-05-02T04:22:42.973Z,33.33
2019-05-02T04:25:10.436Z,32.05
2019-05-02T04:27:40.153Z,30.45
2019-05-02T04:30:13.898Z,30.48
2019-05-02T04:32:43.125Z,29.85
2019-05-02T04:35:12.157Z,28.70
2019-05-02T04:37:43.797Z,29.67
2019-05-02T04:40:13.009Z,27.80
2019-05-02T04:42:42.822Z,29.92
2019-05-02T04:45:25.223Z,30.50
2019-05-02T04:47:57.459Z,28.32
2019-05-02T04:50:24.290Z,25.12
2019-05-02T04:52:48.438Z,27.85
2019-05-02T04:55:28.034Z,26.12
2019-05-02T04:57:50.979Z,27.80
2019-05-02T05:00:28.641Z,27.45
2019-05-02T05:02:58.730Z,25.62
2019-05-02T05:05:31.282Z,26.12
2019-05-02T05:07:59.418Z,24.10
2019-05-02T05:10:40.318Z,23.18
2019-05-02T05:13:00.533Z,22.48
2019-05-02T05:15:37.942Z,23.77
2019-05-02T05:18:04.537Z,21.57
2019-05-02T05:20:33.142Z,25.75
2019-05-02T05:23:02.960Z,21.12
2019-05-02T05:25:37.867Z,22.93
2019-05-02T05:28:09.050Z,23.40
2019-05-02T05:30:45.381Z,23.25
2019-05-02T05:33:10.355Z,26.25
2019-05-02T05:35:43.192Z,27.17
2019-05-02T05:38:11.254Z,25.48
2019-05-02T05:40:40.578Z,25.57
2019-05-02T05:43:15.625Z,25.57
2019-05-02T05:45:53.351Z,25.30
2019-05-02T05:48:14.819Z,26.80
2019-05-02T05:50:47.663Z,23.67
2019-05-02T05:53:19.164Z,23.47
2019-05-02T05:55:48.022Z,24.55
2019-05-02T05:58:18.815Z,25.20
2019-05-02T06:00:53.857Z,23.32
2019-05-02T06:03:19.793Z,22.95
2019-05-02T06:05:49.739Z,24.35
2019-05-02T06:08:19.985Z,26.12
2019-05-02T06:10:50.189Z,24.23
2019-05-02T06:13:19.472Z,23.00
2019-05-02T06:16:00.975Z,22.40
2019-05-02T06:18:19.784Z,22.02
2019-05-02T06:20:49.067Z,23.60
2019-05-02T06:23:18.838Z,22.32
2019-05-02T06:25:48.540Z,19.77
2019-05-02T06:28:17.818Z,23.10
2019-05-02T06:30:47.766Z,24.25
2019-05-02T06:33:17.484Z,21.82
2019-05-02T06:35:47.181Z,23.25
2019-05-02T06:38:21.594Z,23.57
2019-05-02T06:40:48.125Z,21.48
2019-05-02T06:43:17.841Z,23.35
2019-05-02T06:45:47.709Z,21.87
2019-05-02T06:48:18.822Z,21.05
2019-05-02T06:50:48.817Z,19.45
2019-05-02T06:53:18.661Z,22.87
2019-05-02T06:55:48.049Z,20.10
2019-05-02T06:58:17.742Z,19.95
2019-05-02T07:00:57.480Z,21.23
2019-05-02T07:03:18.796Z,20.90
2019-05-02T07:05:49.120Z,21.80
2019-05-02T07:08:20.030Z,20.05
2019-05-02T07:10:49.780Z,21.68
2019-05-02T07:13:19.482Z,19.25
2019-05-02T07:15:54.006Z,20.77
2019-05-02T07:18:47.537Z,19.87
2019-05-02T07:21:17.315Z,23.02
2019-05-02T07:23:48.602Z,17.20
2019-05-02T07:26:21.004Z,21.23
2019-05-02T07:28:47.777Z,22.05
2019-05-02T07:31:17.461Z,20.40
2019-05-02T07:33:47.180Z,19.45
2019-05-02T07:36:16.877Z,20.48
2019-05-02T07:38:46.487Z,22.42
2019-05-02T07:41:15.937Z,20.25
2019-05-02T07:43:46.621Z,22.02
2019-05-02T07:46:20.883Z,21.35
2019-05-02T07:48:48.983Z,18.80
2019-05-02T07:51:21.239Z,23.83
2019-05-02T07:53:50.164Z,20.12
2019-05-02T07:56:19.787Z,21.90
2019-05-02T07:58:49.489Z,22.32
2019-05-02T08:01:19.303Z,19.23
2019-05-02T08:03:49.013Z,21.05
2019-05-02T08:06:18.720Z,22.15
2019-05-02T08:08:48.434Z,16.12
2019-05-02T08:11:18.041Z,21.77
2019-05-02T08:13:49.517Z,20.85
2019-05-02T08:16:22.307Z,21.37
2019-05-02T08:18:50.961Z,18.73
2019-05-02T08:21:20.769Z,21.27
2019-05-02T08:23:50.382Z,22.37
2019-05-02T08:26:21.710Z,17.65
2019-05-02T08:28:53.288Z,24.12
2019-05-02T08:31:22.788Z,19.05
2019-05-02T08:33:52.508Z,21.73
2019-05-02T08:36:21.893Z,21.42
2019-05-02T08:38:53.744Z,24.02
2019-05-02T08:41:22.645Z,20.85
2019-05-02T08:43:52.361Z,23.67
2019-05-02T08:46:22.081Z,19.17
2019-05-02T08:48:51.773Z,18.32
2019-05-02T08:51:21.382Z,16.60
2019-05-02T08:53:52.143Z,19.12
2019-05-02T08:56:22.913Z,23.60
2019-05-02T08:58:52.375Z,20.72
2019-05-02T09:01:34.313Z,19.30
2019-05-02T09:03:56.423Z,21.20
2019-05-02T09:06:24.165Z,20.27
2019-05-02T09:08:53.695Z,18.77
2019-05-02T09:11:23.265Z,21.73
2019-05-02T09:13:53.077Z,14.98
2019-05-02T09:16:28.824Z,18.30
2019-05-02T09:18:54.360Z,20.32
2019-05-02T09:21:26.754Z,14.78
2019-05-02T09:23:55.194Z,16.60
2019-05-02T09:26:35.048Z,18.40
2019-05-02T09:28:56.205Z,17.82
2019-05-02T09:31:26.885Z,21.02
2019-05-02T09:33:56.309Z,18.25
2019-05-02T09:36:26.002Z,19.85
2019-05-02T09:38:57.719Z,17.52
2019-05-02T09:41:32.406Z,19.67
2019-05-02T09:43:59.021Z,18.82
2019-05-02T09:46:28.375Z,20.05
2019-05-02T09:49:04.275Z,15.40
2019-05-02T09:51:29.317Z,16.27
2019-05-02T09:54:04.707Z,17.67
2019-05-02T09:56:32.395Z,18.20
2019-05-02T09:59:14.836Z,16.82
2019-05-02T10:01:35.182Z,17.30
2019-05-02T10:04:04.870Z,17.57
2019-05-02T10:06:34.603Z,19.25
2019-05-02T10:09:06.053Z,17.15
2019-05-02T10:11:36.377Z,17.55
2019-05-02T10:14:06.257Z,12.95
2019-05-02T10:16:36.288Z,15.58
2019-05-02T10:19:10.748Z,14.73
2019-05-02T10:21:37.470Z,15.53
2019-05-02T10:24:07.287Z,15.98
2019-05-02T10:26:36.716Z,14.73
2019-05-02T10:29:06.687Z,12.23
2019-05-02T10:31:37.812Z,14.05
2019-05-02T10:34:08.544Z,18.15
2019-05-02T10:36:39.118Z,14.15
2019-05-02T10:39:08.946Z,13.72
2019-05-02T10:41:39.343Z,11.93
2019-05-02T10:44:09.980Z,15.50
2019-05-02T10:46:44.297Z,13.48
2019-05-02T10:49:15.728Z,16.57
2019-05-02T10:51:49.561Z,13.75
2019-05-02T10:54:16.712Z,12.75
2019-05-02T10:56:46.625Z,12.33
2019-05-02T10:59:16.978Z,12.88
2019-05-02T11:01:57.304Z,14.35
2019-05-02T11:04:29.291Z,13.55
2019-05-02T11:07:02.642Z,13.13
2019-05-02T11:09:32.473Z,10.90
2019-05-02T11:12:03.890Z,13.08
2019-05-02T11:14:51.664Z,17.15
2019-05-02T11:17:23.219Z,13.15
2019-05-02T11:20:06.451Z,10.93
2019-05-02T11:22:36.110Z,14.00
2019-05-02T11:25:06.851Z,15.13
2019-05-02T11:27:36.601Z,15.25
2019-05-02T11:30:08.166Z,14.07
2019-05-02T11:32:37.962Z,13.38
2019-05-02T11:35:07.570Z,16.77
2019-05-02T11:37:37.254Z,12.70
2019-05-02T11:40:12.571Z,15.00
2019-05-02T11:42:41.750Z,18.02
2019-05-02T11:45:12.118Z,13.48
2019-05-02T11:47:42.468Z,15.03
2019-05-02T11:50:12.285Z,15.28
2019-05-02T11:52:42.545Z,11.55
2019-05-02T11:55:12.940Z,12.70
2019-05-02T11:57:42.882Z,11.20
2019-05-02T12:00:12.762Z,11.65
2019-05-02T12:02:44.214Z,12.03
2019-05-02T12:05:18.456Z,13.65
2019-05-02T12:07:48.132Z,12.80
2019-05-02T12:10:17.746Z,10.98
2019-05-02T12:12:47.455Z,12.68
2019-05-02T12:15:17.270Z,12.15
2019-05-02T12:17:47.175Z,14.15
2019-05-02T12:20:16.921Z,14.10
2019-05-02T12:22:46.641Z,12.33
2019-05-02T12:25:16.334Z,14.05
2019-05-02T12:27:46.027Z,13.13
2019-05-02T12:30:16.045Z,14.85
2019-05-02T12:32:45.652Z,9.85
2019-05-02T12:35:15.362Z,11.65
2019-05-02T12:37:47.036Z,12.07
2019-05-02T12:40:16.623Z,10.98
2019-05-02T12:42:45.997Z,11.78
2019-05-02T12:45:15.730Z,11.55
2019-05-02T12:47:45.346Z,12.37
2019-05-02T12:50:15.060Z,10.53
2019-05-02T12:52:44.763Z,10.72
2019-05-02T12:55:14.569Z,10.70
2019-05-02T12:57:44.177Z,11.83
2019-05-02T13:00:13.569Z,13.55
2019-05-02T13:02:48.106Z,10.18
2019-05-02T13:05:17.717Z,9.95
2019-05-02T13:07:50.352Z,11.18
2019-05-02T13:10:32.709Z,12.63
2019-05-02T13:13:02.780Z,11.63
2019-05-02T13:15:32.981Z,10.38
2019-05-02T13:18:03.063Z,9.98
2019-05-02T13:20:34.666Z,9.40
2019-05-02T13:23:05.706Z,9.90
2019-05-02T13:25:36.866Z,8.60
2019-05-02T13:28:06.414Z,10.53
2019-05-02T13:30:42.848Z,9.38
2019-05-02T13:33:12.037Z,8.85
2019-05-02T13:35:45.679Z,8.33
2019-05-02T13:40:45.809Z,8.63
2019-05-02T13:43:15.657Z,9.53
2019-05-02T13:45:48.508Z,9.55
2019-05-02T13:48:18.110Z,8.10
2019-05-02T13:50:47.930Z,18.37
2019-05-02T13:53:17.745Z,10.82
2019-05-02T13:55:55.432Z,12.55
2019-05-02T13:58:28.813Z,11.48
2019-05-02T14:00:56.704Z,10.28
2019-05-02T14:03:26.516Z,9.80
2019-05-02T14:05:56.022Z,9.48
2019-05-02T14:08:33.099Z,11.12
2019-05-02T14:11:09.167Z,10.95
2019-05-02T14:13:38.874Z,10.13
2019-05-02T14:16:08.677Z,7.47
2019-05-02T14:18:37.996Z,9.15
2019-05-02T14:21:07.696Z,8.13
2019-05-02T14:23:37.404Z,9.13
2019-05-02T14:26:07.214Z,10.88
2019-05-02T14:28:37.034Z,10.58
2019-05-02T14:31:06.840Z,17.95
2019-05-02T14:33:38.196Z,12.15
2019-05-02T14:36:07.606Z,12.33
2019-05-02T14:38:37.102Z,11.18
2019-05-02T14:41:08.144Z,8.50
2019-05-02T14:43:53.185Z,8.60
2019-05-02T14:46:23.261Z,11.33
2019-05-02T14:48:53.146Z,6.67
2019-05-02T14:51:27.762Z,9.40
2019-05-02T14:53:57.469Z,8.88
2019-05-02T14:56:32.669Z,14.07
2019-05-02T14:59:02.661Z,12.78
2019-05-02T15:01:32.541Z,11.12
2019-05-02T15:04:08.343Z,8.00
2019-05-02T15:06:38.324Z,10.63
2019-05-02T15:09:11.953Z,18.50
2019-05-02T15:11:59.547Z,16.85
2019-05-02T15:14:32.649Z,9.28
2019-05-02T15:17:02.684Z,8.80
2019-05-02T15:19:33.098Z,14.18
2019-05-02T15:22:03.101Z,10.72
2019-05-02T15:24:37.416Z,14.30
2019-05-02T15:27:11.795Z,12.30
2019-05-02T15:29:35.421Z,17.37
2019-05-02T15:32:25.535Z,10.90
2019-05-02T15:35:03.216Z,10.05
2019-05-02T15:37:35.722Z,14.47
2019-05-02T15:42:39.589Z,11.70
2019-05-02T15:45:10.192Z,16.93
2019-05-02T15:47:41.544Z,7.75
2019-05-02T15:50:14.731Z,8.38
2019-05-02T15:52:44.059Z,10.70
2019-05-02T15:55:13.771Z,17.12
2019-05-02T15:57:45.995Z,8.30
2019-05-02T16:00:24.506Z,8.55
2019-05-02T16:02:47.349Z,7.67
2019-05-02T16:05:17.217Z,6.17
2019-05-02T16:07:47.040Z,12.33
2019-05-02T16:10:16.837Z,8.50
2019-05-02T16:12:47.789Z,8.15
2019-05-02T16:15:21.384Z,6.97
2019-05-02T16:17:48.743Z,6.15
2019-05-02T16:20:20.266Z,8.73
2019-05-02T16:22:50.084Z,8.50
2019-05-02T16:25:24.381Z,9.45
2019-05-02T16:27:52.864Z,5.92
2019-05-02T16:30:23.457Z,10.48
2019-05-02T16:32:54.783Z,8.58
2019-05-02T16:35:26.235Z,12.00
2019-05-02T16:37:56.127Z,11.18
2019-05-02T16:40:29.895Z,11.18
2019-05-02T16:42:57.133Z,15.78
2019-05-02T16:45:26.914Z,9.58
2019-05-02T16:48:00.617Z,7.37
2019-05-02T16:50:32.374Z,9.50
2019-05-02T16:52:59.114Z,7.25
2019-05-02T16:55:28.930Z,8.40
2019-05-02T16:58:05.216Z,7.28
2019-05-02T17:00:29.672Z,6.87
2019-05-02T17:02:59.030Z,9.53
2019-05-02T17:05:28.796Z,8.48
2019-05-02T17:08:02.140Z,8.00
2019-05-02T17:10:35.056Z,5.17
2019-05-02T17:13:05.596Z,7.45
2019-05-02T17:15:38.595Z,8.93
2019-05-02T17:18:18.210Z,8.13
2019-05-02T17:20:39.556Z,7.08
2019-05-02T17:23:09.359Z,8.45
2019-05-02T17:25:39.275Z,7.55
2019-05-02T17:28:11.226Z,8.78
2019-05-02T17:30:42.533Z,7.22
2019-05-02T17:33:14.961Z,7.28
2019-05-02T17:35:49.635Z,6.95
2019-05-02T17:38:13.868Z,8.05
2019-05-02T17:40:43.572Z,8.48
2019-05-02T17:43:13.386Z,7.90
2019-05-02T17:45:43.003Z,12.93
2019-05-02T17:48:16.245Z,9.80
2019-05-02T17:50:49.321Z,7.60
2019-05-02T17:53:19.664Z,14.63
2019-05-02T17:55:49.413Z,7.72
2019-05-02T17:58:19.221Z,8.93
2019-05-02T18:00:52.324Z,11.50
2019-05-02T18:03:24.270Z,8.10
2019-05-02T18:05:53.478Z,11.95
2019-05-02T18:08:23.190Z,7.72
2019-05-02T18:10:58.112Z,9.43
2019-05-02T18:13:23.938Z,11.00
2019-05-02T18:15:53.586Z,11.40
2019-05-02T18:18:23.362Z,11.08
2019-05-02T18:20:53.023Z,9.45
2019-05-02T18:23:25.812Z,10.00
2019-05-02T18:25:57.321Z,10.60
2019-05-02T18:28:26.563Z,15.08
2019-05-02T18:30:57.299Z,12.98
2019-05-02T18:33:27.657Z,11.95
2019-05-02T18:35:57.383Z,9.25
2019-05-02T18:38:27.997Z,16.17
2019-05-02T18:41:00.206Z,15.25
2019-05-02T18:43:29.262Z,11.38
2019-05-02T18:46:05.942Z,11.03
2019-05-02T18:48:31.900Z,12.33
2019-05-02T18:51:02.800Z,13.05
2019-05-02T18:53:32.755Z,11.68
2019-05-02T18:56:03.643Z,16.50
2019-05-02T18:58:36.287Z,469.52
2019-05-02T19:01:08.513Z,1218.53
2019-05-02T19:03:37.494Z,962.92
2019-05-02T19:06:08.358Z,457.55
2019-05-02T19:08:46.640Z,334.43
2019-05-02T19:11:12.325Z,204.32
2019-05-02T19:13:42.804Z,160.52
2019-05-02T19:16:13.148Z,209.43
2019-05-02T19:18:42.936Z,22.67
2019-05-02T19:21:12.757Z,115.12
2019-05-02T19:23:42.550Z,17.77
2019-05-02T19:26:14.673Z,19.98
2019-05-02T19:28:48.104Z,18.12
2019-05-02T19:31:18.237Z,18.35
2019-05-02T19:33:47.663Z,18.30
2019-05-02T19:36:24.359Z,22.87
2019-05-02T19:38:48.790Z,13.88
2019-05-02T19:41:18.504Z,17.40
2019-05-02T19:43:49.732Z,16.50
2019-05-02T19:46:24.453Z,17.95
2019-05-02T19:48:54.558Z,19.23
2019-05-02T19:53:59.545Z,16.65
2019-05-02T19:56:25.476Z,15.72
2019-05-02T19:58:55.176Z,13.15
2019-05-02T20:01:26.648Z,15.58
2019-05-02T20:03:56.723Z,26.75
2019-05-02T20:06:28.014Z,24.00
2019-05-02T20:08:59.193Z,25.08
2019-05-02T20:11:32.939Z,25.65
2019-05-02T20:14:01.902Z,15.75
2019-05-02T20:16:36.613Z,15.60
2019-05-02T20:19:04.070Z,21.10
2019-05-02T20:21:44.278Z,71.97
2019-05-02T20:24:15.296Z,15.80
2019-05-02T20:26:46.782Z,31.37
2019-05-02T20:29:16.276Z,16.10
2019-05-02T20:31:46.085Z,23.95
2019-05-02T20:34:16.286Z,20.50
2019-05-02T20:36:46.437Z,19.27
2019-05-02T20:39:15.862Z,20.50
2019-05-02T20:41:46.287Z,18.70
2019-05-02T20:44:16.177Z,20.27
2019-05-02T20:46:47.255Z,22.40
2019-05-02T20:49:18.685Z,19.07
2019-05-02T20:51:49.076Z,19.15
2019-05-02T20:54:19.169Z,22.90
2019-05-02T20:56:51.824Z,22.42
2019-05-02T20:59:21.856Z,19.92
2019-05-02T21:01:52.300Z,15.23
2019-05-02T21:04:22.834Z,15.63
2019-05-02T21:07:02.017Z,15.80
2019-05-02T21:09:34.407Z,20.12
2019-05-02T21:12:06.945Z,31.87
2019-05-02T21:14:38.140Z,20.50
2019-05-02T21:17:08.209Z,19.75
2019-05-02T21:19:38.026Z,17.85
2019-05-02T21:22:16.754Z,21.93
2019-05-02T21:24:46.433Z,19.27
2019-05-02T21:27:16.369Z,24.37
2019-05-02T21:29:45.821Z,20.23
2019-05-02T21:32:15.485Z,19.25
2019-05-02T21:34:45.103Z,21.65
2019-05-02T21:37:14.593Z,21.07
2019-05-02T21:39:44.415Z,22.20
2019-05-02T21:42:14.014Z,21.50
2019-05-02T21:44:43.755Z,19.92
2019-05-02T21:47:13.439Z,20.35
2019-05-02T21:49:44.735Z,18.35
2019-05-02T21:52:34.461Z,20.00
2019-05-02T21:55:26.182Z,19.45
2019-05-02T21:57:55.798Z,18.32
2019-05-02T22:00:27.145Z,21.90
2019-05-02T22:02:58.097Z,16.27
2019-05-02T22:05:27.794Z,26.77
2019-05-02T22:07:57.505Z,18.70
2019-05-02T22:10:27.114Z,21.33
2019-05-02T22:12:56.827Z,18.98
2019-05-02T22:15:26.429Z,25.10
2019-05-02T22:17:56.143Z,20.72
2019-05-02T22:20:25.858Z,193.07
2019-05-02T22:22:55.767Z,70.20
2019-05-02T22:25:25.474Z,61.77
2019-05-02T22:27:55.198Z,39.70
2019-05-02T22:30:24.903Z,31.82
2019-05-02T22:32:54.610Z,25.95
2019-05-02T22:35:24.422Z,27.58
2019-05-02T22:37:56.893Z,25.88
2019-05-02T22:40:26.705Z,28.70
2019-05-02T22:42:56.069Z,27.55
2019-05-02T22:45:25.818Z,22.48
2019-05-02T22:47:55.646Z,24.80
2019-05-02T22:50:25.063Z,31.48
2019-05-02T22:52:54.741Z,24.32
2019-05-02T22:55:24.554Z,21.48
2019-05-02T22:57:53.905Z,22.77
2019-05-02T23:00:23.765Z,21.68
2019-05-02T23:02:53.221Z,20.17
2019-05-02T23:05:22.985Z,27.73
2019-05-02T23:07:52.782Z,20.92
2019-05-02T23:10:22.823Z,20.57
2019-05-02T23:12:52.520Z,24.07
2019-05-02T23:15:21.903Z,52.03
2019-05-02T23:17:52.337Z,26.30
2019-05-02T23:20:24.240Z,28.40
2019-05-02T23:22:52.839Z,25.05
2019-05-02T23:25:23.788Z,24.47
2019-05-02T23:27:55.084Z,23.30
2019-05-02T23:30:25.304Z,18.52
2019-05-02T23:32:54.586Z,20.57
2019-05-02T23:35:24.217Z,26.73
2019-05-02T23:37:53.934Z,24.30
2019-05-02T23:40:23.537Z,23.75
2019-05-02T23:42:53.348Z,17.10
2019-05-02T23:45:22.957Z,18.90
2019-05-02T23:47:52.898Z,13.60
2019-05-02T23:50:23.045Z,16.48
2019-05-02T23:52:52.902Z,14.65
2019-05-02T23:55:22.837Z,14.30
2019-05-02T23:57:52.635Z,18.00
